If you wish to contribute or participate in the discussions about articles you are invited to join SKYbrary as a registered user

 Actions

Hermes Quijada International Airport

From SKYbrary Wiki

SAWE
Airport
ICAO: SAWE – IATA: RGA
Summary
Name Hermes Quijada International Airport
Region South America and Caribbean
Territory Argentina AR.gif
Location Rio Grande, Tierra del Fuego
Serving Rio Grande
Elevation 19.812 m
65 ft
65 ft19.812 m
Type medium airport
Coordinates 53° 46' 39.60" S, 67° 44' 57.80" W
Runways
Designator Length Width Surface ROPS
7/25 2000 m6,561.68 ft
40 m131.234 ft
ASP yes/yes


METAR
Observation SAWE 171400Z 29006KT 9999 -DZ FEW010 SCT015 OVC050 03/03 Q1002
Station Rio Grande B. A.
Date/Time 17 September 2019 14:00:00
Wind direction 290°
Wind speed 06 kts
Lowest cloud amount few clouds
Temperature 3°C
Dew point 3°C
Humidity 100%
QNH 1002 hPa
Weather condition light drizzle

Airport 2km 1.08 nm
2,000 m
6,561.68 ft
northwest of Rio Grande, Tierra del Fuego, Argentina.

Climatology

Cool oceanic climate (Köppen climate classification Cfc).

Maps

Terrain

Loading map...

Airport Layout

Loading map...


Accidents & Serious Incidents at or in vicinity of SAWE

None on SKYbrary